Alamosa, CO

5:03 PM MST on December 21, 2014 (GMT -0700)
Alamosa | Change Station
CLOSE
Current Station
Personal Weather Station
Location: Alamosa, CO
Elevation: 7569 ft
Nearby Weather Stations

Elev 7569 ft 37.49 °N, 105.90 °W | Updated 7 seconds ago

Overcast
Overcast
35.7 °F
Feels Like 36 °F
N
0.0
Wind Variable Wind from ENE
Gusts 0.0 mph

Today
High -- | Low -- °F
--% Chance of Precip.
Yesterday
High -- | Low -- °F
Precip. -- in
7:14 AM 4:48 PM
Waning Crescent, 0% visible
Pressure 29.91 in
Visibility 10.0 miles
Clouds Overcast 4000 ft
Windchill 36 °F
Dew Point 23 °F
Humidity 60%
Rainfall -999.00 in
Snow Depth Not available.
UV 0 out of 12
Pollen .10 out of 12
Air Quality Not available.
Flu Activity Not available.
METAR KALS 212352Z AUTO 08007KT 10SM OVC040 02/M06 A2981 RMK AO2 SLP128 T00221056 10050 20000 55007

More Conditions Fewer Conditions

Pressure 29.91 in
Visibility 10.0 miles
Clouds Overcast 4000 ft
Windchill 36 °F
Dew Point 23 °F
Humidity 60%
Rainfall -999.00 in
Snow Depth Not available.
UV 0 out of 12
Pollen .10 out of 12
Air Quality Not available.
Flu Activity Not available.
METAR KALS 212352Z AUTO 08007KT 10SM OVC040 02/M06 A2981 RMK AO2 SLP128 T00221056 10050 20000 55007

More Conditions Fewer Conditions

10-Day Weather Forecast

Almanac

Astronomy

Dec. 21, 2014 Rise Set
Actual Time
Civil Twilight
Nautical Twilight
Astronomical Twilight
Moon
Length of Visible Light
Length of Day
Tomorrow will be .
, % of the Moon is Illuminated

Today's Extremes

State Highs State Lows

Community

WunderPhotos

Upload Photos

1,779,509 photos uploaded!

WunderBlogs® & News

Nearby

Air Quality

  Air Quality AQ Index Pollutant
Not available.

Snow Depth

Station Depth Elevation

Earthquake Activity

City Distance Mag. Time & Date
Minimum magnitude displayed is 2.5.

Coastal Water Temperatures

Place Temperature

Nearby Weather Stations